createdAt,value
2018-09-05T00:00:47.613Z,25.60
2018-09-05T00:03:16.853Z,22.43
2018-09-05T00:05:46.712Z,25.73
2018-09-05T00:08:15.820Z,27.13
2018-09-05T00:10:44.881Z,30.10
2018-09-05T00:13:13.965Z,27.70
2018-09-05T00:15:43.025Z,27.57
2018-09-05T00:18:12.195Z,31.20
2018-09-05T00:20:41.254Z,39.83
2018-09-05T00:23:10.295Z,35.43
2018-09-05T00:25:39.444Z,25.10
2018-09-05T00:28:08.554Z,28.30
2018-09-05T00:30:37.674Z,24.63
2018-09-05T00:33:06.764Z,28.00
2018-09-05T00:35:35.817Z,27.80
2018-09-05T00:38:04.947Z,28.23
2018-09-05T00:40:34.012Z,27.40
2018-09-05T00:43:03.103Z,28.63
2018-09-05T00:45:32.225Z,28.37
2018-09-05T00:48:01.364Z,28.97
2018-09-05T00:50:31.583Z,29.57
2018-09-05T00:53:00.647Z,34.13
2018-09-05T00:55:29.851Z,25.27
2018-09-05T00:57:59.001Z,24.23
2018-09-05T01:00:28.328Z,28.00
2018-09-05T01:02:57.544Z,28.00
2018-09-05T01:05:27.811Z,28.30
2018-09-05T01:07:56.955Z,30.57
2018-09-05T01:10:26.109Z,35.23
2018-09-05T01:12:55.252Z,34.63
2018-09-05T01:15:24.319Z,30.50
2018-09-05T01:17:53.445Z,31.53
2018-09-05T01:20:22.677Z,36.27
2018-09-05T01:22:51.768Z,30.60
2018-09-05T01:25:20.858Z,29.40
2018-09-05T01:27:49.978Z,27.20
2018-09-05T01:30:19.039Z,28.00
2018-09-05T01:32:48.135Z,26.77
2018-09-05T01:35:17.271Z,34.37
2018-09-05T01:37:46.444Z,35.87
2018-09-05T01:40:15.472Z,31.57
2018-09-05T01:42:44.573Z,28.90
2018-09-05T01:45:13.635Z,34.90
2018-09-05T01:47:42.741Z,31.23
2018-09-05T01:50:12.436Z,29.53
2018-09-05T01:52:41.504Z,31.67
2018-09-05T01:55:10.582Z,32.67
2018-09-05T01:57:39.669Z,31.53
2018-09-05T02:00:13.613Z,28.20
2018-09-05T02:02:42.739Z,30.67
2018-09-05T02:05:11.906Z,30.53
2018-09-05T02:07:42.178Z,27.83
2018-09-05T02:10:11.299Z,27.60
2018-09-05T02:12:40.430Z,29.80
2018-09-05T02:15:09.483Z,28.03
2018-09-05T02:17:38.537Z,32.43
2018-09-05T02:20:07.644Z,28.50
2018-09-05T02:22:36.725Z,24.63
2018-09-05T02:25:06.058Z,29.73
2018-09-05T02:27:35.126Z,24.50
2018-09-05T02:30:04.653Z,32.33
2018-09-05T02:32:33.740Z,30.83
2018-09-05T02:35:02.908Z,29.73
2018-09-05T02:37:32.111Z,33.43
2018-09-05T02:40:01.251Z,34.73
2018-09-05T02:42:30.272Z,32.80
2018-09-05T02:44:59.372Z,32.23
2018-09-05T02:47:28.468Z,31.30
2018-09-05T02:49:57.779Z,28.63
2018-09-05T02:52:27.063Z,28.80
2018-09-05T02:54:56.221Z,27.43
2018-09-05T02:57:25.241Z,26.77
2018-09-05T02:59:54.419Z,26.70
2018-09-05T03:02:23.568Z,22.73
2018-09-05T03:04:52.673Z,25.27
2018-09-05T03:07:21.736Z,26.57
2018-09-05T03:09:50.931Z,22.40
2018-09-05T03:12:21.202Z,24.53
2018-09-05T03:14:51.684Z,22.70
2018-09-05T03:17:21.259Z,25.27
2018-09-05T03:19:50.416Z,25.40
2018-09-05T03:22:20.208Z,28.70
2018-09-05T03:24:49.337Z,27.70
2018-09-05T03:27:18.415Z,27.70
2018-09-05T03:29:47.504Z,26.00
2018-09-05T03:32:16.638Z,29.63
2018-09-05T03:34:45.719Z,27.20
2018-09-05T03:37:14.812Z,31.10
2018-09-05T03:39:43.860Z,32.50
2018-09-05T03:42:12.985Z,34.60
2018-09-05T03:44:42.052Z,30.27
2018-09-05T03:47:11.152Z,27.63
2018-09-05T03:49:40.271Z,29.13
2018-09-05T03:52:09.331Z,28.67
2018-09-05T03:54:39.111Z,29.60
2018-09-05T03:57:08.258Z,25.17
2018-09-05T03:59:37.375Z,23.60
2018-09-05T04:02:06.433Z,24.50
2018-09-05T04:04:35.560Z,26.93
2018-09-05T04:07:04.731Z,26.10
2018-09-05T04:09:33.860Z,23.47
2018-09-05T04:12:03.066Z,23.20
2018-09-05T04:14:32.224Z,24.37
2018-09-05T04:17:01.247Z,24.27
2018-09-05T04:19:30.348Z,36.50
2018-09-05T04:22:00.096Z,23.97
2018-09-05T04:24:29.202Z,23.33
2018-09-05T04:26:58.937Z,27.13
2018-09-05T04:29:28.086Z,31.03
2018-09-05T04:31:57.156Z,29.33
2018-09-05T04:34:26.240Z,29.93
2018-09-05T04:36:55.308Z,27.93
2018-09-05T04:39:24.398Z,27.33
2018-09-05T04:41:53.630Z,34.30
2018-09-05T04:44:22.715Z,34.43
2018-09-05T04:46:52.416Z,32.93
2018-09-05T04:49:21.576Z,28.90
2018-09-05T04:51:50.644Z,28.30
2018-09-05T04:54:19.791Z,40.63
2018-09-05T04:56:48.948Z,32.80
2018-09-05T04:59:18.121Z,33.50
2018-09-05T05:01:47.194Z,35.07
2018-09-05T05:04:16.384Z,39.43
2018-09-05T05:06:45.432Z,44.87
2018-09-05T05:09:14.562Z,63.60
2018-09-05T05:11:43.657Z,75.57
2018-09-05T05:14:12.937Z,51.03
2018-09-05T05:16:42.163Z,31.37
2018-09-05T05:19:11.227Z,83.07
2018-09-05T05:21:40.294Z,140.27
2018-09-05T05:24:09.406Z,62.00
2018-09-05T05:26:38.576Z,61.87
2018-09-05T05:29:07.630Z,100.73
2018-09-05T05:31:36.809Z,90.70
2018-09-05T05:34:05.973Z,129.83
2018-09-05T05:36:35.233Z,53.50
2018-09-05T05:39:07.104Z,49.57
2018-09-05T05:41:36.219Z,116.40
2018-09-05T05:44:05.419Z,147.53
2018-09-05T05:46:34.819Z,110.33
2018-09-05T05:49:03.996Z,82.47
2018-09-05T05:51:33.214Z,145.17
2018-09-05T05:54:02.341Z,151.40
2018-09-05T05:56:31.527Z,152.17
2018-09-05T05:59:00.579Z,60.30
2018-09-05T06:01:29.718Z,63.87
2018-09-05T06:03:58.819Z,58.60
2018-09-05T06:06:27.978Z,60.93
2018-09-05T06:08:57.013Z,54.10
2018-09-05T06:11:26.244Z,56.57
2018-09-05T06:13:56.119Z,48.77
2018-09-05T06:16:25.311Z,47.73
2018-09-05T06:18:54.403Z,45.70
2018-09-05T06:21:23.497Z,45.53
2018-09-05T06:23:52.648Z,48.23
2018-09-05T06:26:21.820Z,45.67
2018-09-05T06:28:50.892Z,49.37
2018-09-05T06:31:20.189Z,52.13
2018-09-05T06:33:49.152Z,50.83
2018-09-05T06:36:18.161Z,40.43
2018-09-05T06:38:47.223Z,62.27
2018-09-05T06:41:16.301Z,78.30
2018-09-05T06:43:45.959Z,58.67
2018-09-05T06:46:15.073Z,52.57
2018-09-05T06:48:44.222Z,51.03
2018-09-05T06:51:13.303Z,40.50
2018-09-05T06:53:42.372Z,40.50
2018-09-05T06:56:11.593Z,45.13
2018-09-05T06:58:40.810Z,40.77
2018-09-05T07:01:10.048Z,38.53
2018-09-05T07:03:39.872Z,34.00
2018-09-05T07:06:08.823Z,38.63
2018-09-05T07:08:38.649Z,38.40
2018-09-05T07:11:08.609Z,38.90
2018-09-05T07:13:37.660Z,38.63
2018-09-05T07:16:07.361Z,33.37
2018-09-05T07:18:36.626Z,37.40
2018-09-05T07:21:06.221Z,32.77
2018-09-05T07:23:35.048Z,35.63
2018-09-05T07:26:04.141Z,30.97
2018-09-05T07:28:33.312Z,28.63
2018-09-05T07:31:02.426Z,46.03
2018-09-05T07:33:31.476Z,29.70
2018-09-05T07:36:00.621Z,41.43
2018-09-05T07:38:29.695Z,30.97
2018-09-05T07:40:58.831Z,32.40
2018-09-05T07:43:28.507Z,27.13
2018-09-05T07:45:57.626Z,40.47
2018-09-05T07:48:26.807Z,30.80
2018-09-05T07:50:56.686Z,29.27
2018-09-05T07:53:25.723Z,29.50
2018-09-05T07:55:54.877Z,27.87
2018-09-05T07:58:24.117Z,27.87
2018-09-05T08:00:53.303Z,31.00
2018-09-05T08:03:22.440Z,25.03
2018-09-05T08:05:51.924Z,24.97
2018-09-05T08:08:21.021Z,24.43
2018-09-05T08:10:50.159Z,23.73
2018-09-05T08:13:19.303Z,26.97
2018-09-05T08:15:48.400Z,28.43
2018-09-05T08:18:17.514Z,23.13
2018-09-05T08:20:46.599Z,26.97
2018-09-05T08:23:15.644Z,28.03
2018-09-05T08:25:44.813Z,25.00
2018-09-05T08:28:14.841Z,26.83
2018-09-05T08:30:44.018Z,25.73
2018-09-05T08:33:13.324Z,26.13
2018-09-05T08:38:13.805Z,25.30
2018-09-05T08:40:43.020Z,27.10
2018-09-05T08:43:12.200Z,25.03
2018-09-05T08:45:41.566Z,27.00
2018-09-05T08:48:11.094Z,28.43
2018-09-05T08:50:40.119Z,27.17
2018-09-05T08:53:09.231Z,27.43
2018-09-05T08:55:38.447Z,26.27
2018-09-05T08:58:07.573Z,27.30
2018-09-05T09:00:36.879Z,24.87
2018-09-05T09:03:06.084Z,24.27
2018-09-05T09:05:35.144Z,26.30
2018-09-05T09:08:04.299Z,25.27
2018-09-05T09:10:33.372Z,25.50
2018-09-05T09:13:02.745Z,28.00
2018-09-05T09:15:31.912Z,25.67
2018-09-05T09:18:01.250Z,25.27
2018-09-05T09:20:30.305Z,23.73
2018-09-05T09:22:59.716Z,24.40
2018-09-05T09:25:28.807Z,34.60
2018-09-05T09:27:57.894Z,23.70
2018-09-05T09:30:26.986Z,23.07
2018-09-05T09:32:56.125Z,23.63
2018-09-05T09:35:25.331Z,27.80
2018-09-05T09:37:54.333Z,23.00
2018-09-05T09:40:23.396Z,20.43
2018-09-05T09:42:52.556Z,19.50
2018-09-05T09:45:21.756Z,18.50
2018-09-05T09:47:50.932Z,21.00
2018-09-05T09:50:20.047Z,22.27
2018-09-05T09:52:49.188Z,21.77
2018-09-05T09:55:18.367Z,20.57
2018-09-05T09:57:47.439Z,20.50
2018-09-05T10:00:21.816Z,20.83
2018-09-05T10:02:56.373Z,21.30
2018-09-05T10:05:30.804Z,20.20
2018-09-05T10:08:05.343Z,20.83
2018-09-05T10:11:41.665Z,20.90
2018-09-05T10:14:14.989Z,22.40
2018-09-05T10:16:49.479Z,21.10
2018-09-05T10:19:18.626Z,21.10
2018-09-05T10:21:47.700Z,19.70
2018-09-05T10:24:17.475Z,19.60
2018-09-05T10:26:46.592Z,19.13
2018-09-05T10:29:15.829Z,18.40
2018-09-05T10:31:44.939Z,20.90
2018-09-05T10:34:13.973Z,21.20
2018-09-05T10:36:43.125Z,20.83
2018-09-05T10:39:12.217Z,20.37
2018-09-05T10:41:41.292Z,18.03
2018-09-05T10:44:10.685Z,20.80
2018-09-05T10:46:39.777Z,20.30
2018-09-05T10:49:09.319Z,20.90
2018-09-05T10:51:43.745Z,20.23
2018-09-05T10:54:12.884Z,19.00
2018-09-05T10:56:42.052Z,19.53
2018-09-05T10:59:11.297Z,20.40
2018-09-05T11:01:40.435Z,19.50
2018-09-05T11:04:09.563Z,19.10
2018-09-05T11:06:38.700Z,19.80
2018-09-05T11:09:10.076Z,20.50
2018-09-05T11:11:39.628Z,20.20
2018-09-05T11:14:09.681Z,21.17
2018-09-05T11:16:39.258Z,20.60
2018-09-05T11:19:09.210Z,20.60
2018-09-05T11:21:38.700Z,18.87
2018-09-05T11:24:08.464Z,18.10
2018-09-05T11:26:38.131Z,18.83
2018-09-05T11:29:08.059Z,19.47
2018-09-05T11:31:37.671Z,20.40
2018-09-05T11:34:06.840Z,20.33
2018-09-05T11:36:36.004Z,19.67
2018-09-05T11:39:08.553Z,19.70
2018-09-05T11:41:38.491Z,19.93
2018-09-05T11:44:07.991Z,18.67
2018-09-05T11:46:37.973Z,19.47
2018-09-05T11:49:07.719Z,20.47
2018-09-05T11:51:37.115Z,16.70
2018-09-05T11:54:06.898Z,15.50
2018-09-05T11:56:36.024Z,15.87
2018-09-05T11:59:05.172Z,17.63
2018-09-05T12:01:35.119Z,16.50
2018-09-05T12:04:04.305Z,16.37
2018-09-05T12:06:33.465Z,15.40
2018-09-05T12:09:02.808Z,15.70
2018-09-05T12:11:33.296Z,17.67
2018-09-05T12:14:02.384Z,18.43
2018-09-05T12:16:32.222Z,17.93
2018-09-05T12:19:01.397Z,17.07
2018-09-05T12:21:30.512Z,17.10
2018-09-05T12:24:00.468Z,17.67
2018-09-05T12:26:29.712Z,17.80
2018-09-05T12:28:58.847Z,16.63
2018-09-05T12:31:28.349Z,19.13
2018-09-05T12:33:57.583Z,18.90
2018-09-05T12:36:27.238Z,17.60
2018-09-05T12:38:56.369Z,17.10
2018-09-05T12:41:25.449Z,16.97
2018-09-05T12:43:54.524Z,16.23
2018-09-05T12:46:23.761Z,15.00
2018-09-05T12:48:52.995Z,15.30
2018-09-05T12:51:22.113Z,15.57
2018-09-05T12:53:51.367Z,14.97
2018-09-05T12:56:20.661Z,14.97
2018-09-05T12:58:49.746Z,14.67
2018-09-05T13:01:19.080Z,14.83
2018-09-05T13:03:48.384Z,16.80
2018-09-05T13:06:17.516Z,13.77
2018-09-05T13:08:46.724Z,14.63
2018-09-05T13:11:16.333Z,15.70
2018-09-05T13:13:45.887Z,16.23
2018-09-05T13:16:15.185Z,15.30
2018-09-05T13:18:44.283Z,16.67
2018-09-05T13:21:13.402Z,16.23
2018-09-05T13:23:42.448Z,16.00
2018-09-05T13:26:11.570Z,17.43
2018-09-05T13:28:40.728Z,16.57
2018-09-05T13:31:09.877Z,24.13
2018-09-05T13:33:39.682Z,14.70
2018-09-05T13:36:09.216Z,15.63
2018-09-05T13:38:38.404Z,15.43
2018-09-05T13:41:07.847Z,14.70
2018-09-05T13:43:37.118Z,15.10
2018-09-05T13:46:06.279Z,13.80
2018-09-05T13:48:35.318Z,17.30
2018-09-05T13:51:05.284Z,15.17
2018-09-05T13:53:34.993Z,15.57
2018-09-05T13:56:04.123Z,13.90
2018-09-05T13:58:33.283Z,15.00
2018-09-05T14:01:02.561Z,15.10
2018-09-05T14:03:31.801Z,17.83
2018-09-05T14:06:01.022Z,17.60
2018-09-05T14:08:30.293Z,15.07
2018-09-05T14:10:59.702Z,16.30
2018-09-05T14:13:29.032Z,15.90
2018-09-05T14:15:58.294Z,15.03
2018-09-05T14:18:27.460Z,15.40
2018-09-05T14:20:56.629Z,15.27
2018-09-05T14:23:25.757Z,16.57
2018-09-05T14:25:54.833Z,16.70
2018-09-05T14:28:23.932Z,15.83
2018-09-05T14:30:53.176Z,15.80
2018-09-05T14:33:22.737Z,16.90
2018-09-05T14:35:52.580Z,16.00
2018-09-05T14:38:21.897Z,17.03
2018-09-05T14:40:51.165Z,17.03
2018-09-05T14:43:20.331Z,16.33
2018-09-05T14:45:49.541Z,15.87
2018-09-05T14:48:18.762Z,19.90
2018-09-05T14:50:48.397Z,16.63
2018-09-05T14:53:17.463Z,15.83
2018-09-05T14:55:46.645Z,22.97
2018-09-05T14:58:15.880Z,16.47
2018-09-05T15:00:45.697Z,17.00
2018-09-05T15:03:14.901Z,17.93
2018-09-05T15:05:44.274Z,14.50
2018-09-05T15:08:13.563Z,15.27
2018-09-05T15:10:43.940Z,14.50
2018-09-05T15:13:13.698Z,15.00
2018-09-05T15:15:44.122Z,15.70
2018-09-05T15:18:13.343Z,16.53
2018-09-05T15:20:43.734Z,14.40
2018-09-05T15:23:13.204Z,15.13
2018-09-05T15:25:42.461Z,14.60
2018-09-05T15:28:11.548Z,14.80
2018-09-05T15:30:40.683Z,15.03
2018-09-05T15:33:09.864Z,14.60
2018-09-05T15:35:39.381Z,14.60
2018-09-05T15:38:09.305Z,14.70
2018-09-05T15:40:38.587Z,15.50
2018-09-05T15:43:07.773Z,14.57
2018-09-05T15:45:37.071Z,15.37
2018-09-05T15:48:06.387Z,16.00
2018-09-05T15:50:35.803Z,14.20
2018-09-05T15:53:05.390Z,13.53
2018-09-05T15:55:34.549Z,14.00
2018-09-05T15:58:03.656Z,13.57
2018-09-05T16:00:32.837Z,14.60
2018-09-05T16:03:01.885Z,14.40
2018-09-05T16:05:30.956Z,14.00
2018-09-05T16:08:00.910Z,13.00
2018-09-05T16:10:30.144Z,15.17
2018-09-05T16:12:59.371Z,14.47
2018-09-05T16:15:28.773Z,15.87
2018-09-05T16:17:57.952Z,14.77
2018-09-05T16:20:27.250Z,13.50
2018-09-05T16:22:56.410Z,15.53
2018-09-05T16:25:25.542Z,14.17
2018-09-05T16:27:54.681Z,14.20
2018-09-05T16:30:23.824Z,13.50
2018-09-05T16:32:52.988Z,14.97
2018-09-05T16:35:22.148Z,14.40
2018-09-05T16:37:51.544Z,15.00
2018-09-05T16:40:20.805Z,13.73
2018-09-05T16:42:50.153Z,14.93
2018-09-05T16:45:19.452Z,15.00
2018-09-05T16:47:48.695Z,15.00
2018-09-05T16:50:17.959Z,14.33
2018-09-05T16:52:47.032Z,17.83
2018-09-05T16:55:16.103Z,14.47
2018-09-05T16:57:45.284Z,13.60
2018-09-05T17:00:14.409Z,17.63
2018-09-05T17:02:43.717Z,13.73
2018-09-05T17:05:13.016Z,14.37
2018-09-05T17:07:42.220Z,14.03
2018-09-05T17:10:11.444Z,14.07
2018-09-05T17:12:40.768Z,14.80
2018-09-05T17:15:09.944Z,14.07
2018-09-05T17:17:39.148Z,14.63
2018-09-05T17:20:08.397Z,16.10
2018-09-05T17:22:37.573Z,14.10
2018-09-05T17:25:06.712Z,13.87
2018-09-05T17:27:35.901Z,14.83
2018-09-05T17:30:05.355Z,13.90
2018-09-05T17:32:34.515Z,14.30
2018-09-05T17:35:03.788Z,12.97
2018-09-05T17:37:32.992Z,13.57
2018-09-05T17:40:03.089Z,15.00
2018-09-05T17:42:32.375Z,16.40
2018-09-05T17:45:01.593Z,14.30
2018-09-05T17:47:30.689Z,19.33
2018-09-05T17:49:59.832Z,16.73
2018-09-05T17:52:28.925Z,13.10
2018-09-05T17:54:58.045Z,15.13
2018-09-05T17:57:27.314Z,15.07
2018-09-05T17:59:56.486Z,13.90
2018-09-05T18:02:25.756Z,14.37
2018-09-05T18:04:55.024Z,14.40
2018-09-05T18:07:24.461Z,14.97
2018-09-05T18:09:53.783Z,14.87
2018-09-05T18:12:22.914Z,14.50
2018-09-05T18:14:52.131Z,16.67
2018-09-05T18:17:21.276Z,15.83
2018-09-05T18:19:50.364Z,16.73
2018-09-05T18:22:19.429Z,14.67
2018-09-05T18:24:48.667Z,18.50
2018-09-05T18:27:17.879Z,15.63
2018-09-05T18:29:47.104Z,17.80
2018-09-05T18:32:16.441Z,17.63
2018-09-05T18:34:45.741Z,14.70
2018-09-05T18:37:15.007Z,16.00
2018-09-05T18:39:44.231Z,14.70
2018-09-05T18:42:13.360Z,15.63
2018-09-05T18:44:42.464Z,19.00
2018-09-05T18:47:11.590Z,15.90
2018-09-05T18:49:40.663Z,17.80
2018-09-05T18:52:09.804Z,16.27
2018-09-05T18:54:39.772Z,16.37
2018-09-05T18:57:08.979Z,16.90
2018-09-05T18:59:38.774Z,16.97
2018-09-05T19:02:08.248Z,18.03
2018-09-05T19:04:37.786Z,17.90
2018-09-05T19:07:07.083Z,16.87
2018-09-05T19:09:36.228Z,14.87
2018-09-05T19:12:05.395Z,22.53
2018-09-05T19:14:35.465Z,20.33
2018-09-05T19:17:04.591Z,14.97
2018-09-05T19:19:33.690Z,16.17
2018-09-05T19:22:02.910Z,20.20
2018-09-05T19:24:32.108Z,16.20
2018-09-05T19:27:01.456Z,15.97
2018-09-05T19:29:30.691Z,15.80
2018-09-05T19:32:00.013Z,16.30
2018-09-05T19:34:29.233Z,19.30
2018-09-05T19:36:58.375Z,19.70
2018-09-05T19:39:27.564Z,19.13
2018-09-05T19:41:56.706Z,17.83
2018-09-05T19:44:25.816Z,16.60
2018-09-05T19:46:54.931Z,17.53
2018-09-05T19:49:24.122Z,17.23
2018-09-05T19:51:53.377Z,16.13
2018-09-05T19:54:22.564Z,16.10
2018-09-05T19:56:51.886Z,17.70
2018-09-05T19:59:21.284Z,19.10
2018-09-05T20:01:50.532Z,17.93
2018-09-05T20:04:19.800Z,16.57
2018-09-05T20:06:49.040Z,21.00
2018-09-05T20:09:18.213Z,19.03
2018-09-05T20:11:47.356Z,20.70
2018-09-05T20:14:16.528Z,20.10
2018-09-05T20:16:45.809Z,22.30
2018-09-05T20:19:15.018Z,20.17
2018-09-05T20:21:44.455Z,20.90
2018-09-05T20:24:13.831Z,21.63
2018-09-05T20:26:43.117Z,20.40
2018-09-05T20:29:12.311Z,21.43
2018-09-05T20:31:41.465Z,27.50
2018-09-05T20:34:10.649Z,22.33
2018-09-05T20:36:40.509Z,24.00
2018-09-05T20:39:11.207Z,22.17
2018-09-05T20:41:40.353Z,28.00
2018-09-05T20:44:09.565Z,21.33
2018-09-05T20:46:38.964Z,24.87
2018-09-05T20:49:08.164Z,26.50
2018-09-05T20:51:37.434Z,27.70
2018-09-05T20:54:06.949Z,23.33
2018-09-05T20:56:36.224Z,23.83
2018-09-05T20:59:05.750Z,26.40
2018-09-05T21:01:35.055Z,23.93
2018-09-05T21:04:04.247Z,24.10
2018-09-05T21:06:33.317Z,24.63
2018-09-05T21:09:02.385Z,30.30
2018-09-05T21:11:31.599Z,28.50
2018-09-05T21:14:01.324Z,26.30
2018-09-05T21:16:30.460Z,24.83
2018-09-05T21:18:59.649Z,26.53
2018-09-05T21:21:28.843Z,25.60
2018-09-05T21:23:58.209Z,26.60
2018-09-05T21:26:27.470Z,26.00
2018-09-05T21:28:56.663Z,30.03
2018-09-05T21:31:25.718Z,21.57
2018-09-05T21:33:54.853Z,23.60
2018-09-05T21:36:24.099Z,21.83
2018-09-05T21:38:53.141Z,24.60
2018-09-05T21:41:22.272Z,23.23
2018-09-05T21:43:51.548Z,23.90
2018-09-05T21:46:20.722Z,26.93
2018-09-05T21:48:50.013Z,27.20
2018-09-05T21:51:19.351Z,26.27
2018-09-05T21:53:48.504Z,22.77
2018-09-05T21:56:17.732Z,24.30
2018-09-05T21:58:46.821Z,23.10
2018-09-05T22:01:18.692Z,23.07
2018-09-05T22:03:49.553Z,29.93
2018-09-05T22:06:18.647Z,34.97
2018-09-05T22:08:48.861Z,36.03
2018-09-05T22:11:23.900Z,37.67
2018-09-05T22:13:53.297Z,36.00
2018-09-05T22:16:22.472Z,33.40
2018-09-05T22:18:51.811Z,32.70
2018-09-05T22:21:21.137Z,34.50
2018-09-05T22:23:50.328Z,32.57
2018-09-05T22:26:20.024Z,30.83
2018-09-05T22:28:49.195Z,33.07
2018-09-05T22:31:18.339Z,38.47
2018-09-05T22:33:47.455Z,35.40
2018-09-05T22:36:16.573Z,30.30
2018-09-05T22:38:45.695Z,35.23
2018-09-05T22:41:14.920Z,31.57
2018-09-05T22:43:55.156Z,38.30
2018-09-05T22:46:35.442Z,34.30
2018-09-05T22:51:26.761Z,31.33
2018-09-05T22:54:10.880Z,32.30
2018-09-05T22:56:56.760Z,31.70
2018-09-05T23:00:34.849Z,34.50
2018-09-05T23:05:18.681Z,30.30
2018-09-05T23:07:59.759Z,33.27
2018-09-05T23:10:40.001Z,39.80
2018-09-05T23:13:20.388Z,32.53
2018-09-05T23:16:00.725Z,30.63
2018-09-05T23:18:41.014Z,31.23
2018-09-05T23:21:25.166Z,32.40
2018-09-05T23:24:07.268Z,27.20
2018-09-05T23:26:36.313Z,28.87
2018-09-05T23:29:05.490Z,33.30
2018-09-05T23:31:34.665Z,29.60
2018-09-05T23:34:03.756Z,28.13
2018-09-05T23:36:32.871Z,29.23
2018-09-05T23:39:02.074Z,27.87
2018-09-05T23:41:31.212Z,30.70
2018-09-05T23:44:00.270Z,31.47
2018-09-05T23:46:29.353Z,35.20
2018-09-05T23:48:58.469Z,30.90
2018-09-05T23:51:27.548Z,34.33
2018-09-05T23:53:56.734Z,34.00
2018-09-05T23:56:25.981Z,32.87
2018-09-05T23:58:55.090Z,39.83
